sensor_id;sensor_type;location;lat;lon;timestamp;temperature;humidity
29687;DHT22;16599;47.078;15.536;2023-02-18T00:01:02;4.00;99.90
29687;DHT22;16599;47.078;15.536;2023-02-18T00:03:33;4.20;99.90
29687;DHT22;16599;47.078;15.536;2023-02-18T00:06:00;4.30;99.90
29687;DHT22;16599;47.078;15.536;2023-02-18T00:08:35;4.20;99.90
29687;DHT22;16599;47.078;15.536;2023-02-18T00:11:03;3.90;99.90
29687;DHT22;16599;47.078;15.536;2023-02-18T00:13:30;4.10;99.90
29687;DHT22;16599;47.078;15.536;2023-02-18T00:16:01;4.00;99.90
29687;DHT22;16599;47.078;15.536;2023-02-18T00:18:27;4.00;99.90
29687;DHT22;16599;47.078;15.536;2023-02-18T00:20:54;4.00;99.90
29687;DHT22;16599;47.078;15.536;2023-02-18T00:23:21;3.90;99.90
29687;DHT22;16599;47.078;15.536;2023-02-18T00:25:48;3.80;99.90
29687;DHT22;16599;47.078;15.536;2023-02-18T00:28:14;3.90;99.90
29687;DHT22;16599;47.078;15.536;2023-02-18T00:30:42;3.90;99.90
29687;DHT22;16599;47.078;15.536;2023-02-18T00:33:09;3.90;99.90
29687;DHT22;16599;47.078;15.536;2023-02-18T00:35:35;3.60;99.90
29687;DHT22;16599;47.078;15.536;2023-02-18T00:38:02;3.60;99.90
29687;DHT22;16599;47.078;15.536;2023-02-18T00:40:29;4.00;99.90
29687;DHT22;16599;47.078;15.536;2023-02-18T00:42:55;4.00;99.90
29687;DHT22;16599;47.078;15.536;2023-02-18T00:45:22;3.80;99.90
29687;DHT22;16599;47.078;15.536;2023-02-18T00:47:49;3.80;99.90
29687;DHT22;16599;47.078;15.536;2023-02-18T00:50:15;3.90;99.90
29687;DHT22;16599;47.078;15.536;2023-02-18T00:52:42;3.60;99.90
29687;DHT22;16599;47.078;15.536;2023-02-18T00:55:09;3.80;99.90
29687;DHT22;16599;47.078;15.536;2023-02-18T00:57:36;3.50;99.90
29687;DHT22;16599;47.078;15.536;2023-02-18T01:00:03;3.70;99.90
29687;DHT22;16599;47.078;15.536;2023-02-18T01:02:30;3.80;99.90
29687;DHT22;16599;47.078;15.536;2023-02-18T01:04:57;3.80;99.90
29687;DHT22;16599;47.078;15.536;2023-02-18T01:07:24;3.90;99.90
29687;DHT22;16599;47.078;15.536;2023-02-18T01:09:51;4.10;99.90
29687;DHT22;16599;47.078;15.536;2023-02-18T01:12:17;4.20;99.90
29687;DHT22;16599;47.078;15.536;2023-02-18T01:14:44;4.10;99.90
29687;DHT22;16599;47.078;15.536;2023-02-18T01:17:11;4.00;99.90
29687;DHT22;16599;47.078;15.536;2023-02-18T01:19:37;4.10;99.90
29687;DHT22;16599;47.078;15.536;2023-02-18T01:22:04;4.10;99.90
29687;DHT22;16599;47.078;15.536;2023-02-18T01:24:32;3.90;99.90
29687;DHT22;16599;47.078;15.536;2023-02-18T01:26:58;3.70;99.90
29687;DHT22;16599;47.078;15.536;2023-02-18T01:29:25;3.80;99.90
29687;DHT22;16599;47.078;15.536;2023-02-18T01:31:52;3.70;99.90
29687;DHT22;16599;47.078;15.536;2023-02-18T01:34:19;3.60;99.90
29687;DHT22;16599;47.078;15.536;2023-02-18T01:36:45;3.40;99.90
29687;DHT22;16599;47.078;15.536;2023-02-18T01:39:12;3.60;99.90
29687;DHT22;16599;47.078;15.536;2023-02-18T01:41:39;3.40;99.90
29687;DHT22;16599;47.078;15.536;2023-02-18T01:44:12;3.40;99.90
29687;DHT22;16599;47.078;15.536;2023-02-18T01:46:40;3.40;99.90
29687;DHT22;16599;47.078;15.536;2023-02-18T01:49:06;3.50;99.90
29687;DHT22;16599;47.078;15.536;2023-02-18T01:51:38;3.70;99.90
29687;DHT22;16599;47.078;15.536;2023-02-18T01:54:08;3.80;99.90
29687;DHT22;16599;47.078;15.536;2023-02-18T01:59:19;3.70;99.90
29687;DHT22;16599;47.078;15.536;2023-02-18T02:01:46;4.00;99.90
29687;DHT22;16599;47.078;15.536;2023-02-18T02:04:13;3.80;99.90
29687;DHT22;16599;47.078;15.536;2023-02-18T02:06:40;3.50;99.90
29687;DHT22;16599;47.078;15.536;2023-02-18T02:09:07;3.60;99.90
29687;DHT22;16599;47.078;15.536;2023-02-18T02:16:49;3.80;99.90
29687;DHT22;16599;47.078;15.536;2023-02-18T02:19:32;4.00;99.90
29687;DHT22;16599;47.078;15.536;2023-02-18T02:24:48;3.70;99.90
29687;DHT22;16599;47.078;15.536;2023-02-18T02:27:22;3.70;99.90
29687;DHT22;16599;47.078;15.536;2023-02-18T02:40:18;3.90;99.90
29687;DHT22;16599;47.078;15.536;2023-02-18T02:45:28;4.00;99.90
29687;DHT22;16599;47.078;15.536;2023-02-18T02:50:35;3.90;99.90
29687;DHT22;16599;47.078;15.536;2023-02-18T02:53:05;3.70;99.90
29687;DHT22;16599;47.078;15.536;2023-02-18T02:55:33;3.80;99.90
29687;DHT22;16599;47.078;15.536;2023-02-18T02:58:00;4.00;99.90
29687;DHT22;16599;47.078;15.536;2023-02-18T03:10:45;3.90;99.90
29687;DHT22;16599;47.078;15.536;2023-02-18T03:15:54;4.10;99.90
29687;DHT22;16599;47.078;15.536;2023-02-18T03:18:31;4.10;99.90
29687;DHT22;16599;47.078;15.536;2023-02-18T03:23:34;4.10;99.90
29687;DHT22;16599;47.078;15.536;2023-02-18T03:26:03;4.30;99.90
29687;DHT22;16599;47.078;15.536;2023-02-18T03:28:30;4.60;99.90
29687;DHT22;16599;47.078;15.536;2023-02-18T03:30:59;4.80;99.90
29687;DHT22;16599;47.078;15.536;2023-02-18T03:33:34;4.40;99.90
29687;DHT22;16599;47.078;15.536;2023-02-18T03:36:02;4.20;99.90
29687;DHT22;16599;47.078;15.536;2023-02-18T03:38:37;4.20;99.90
29687;DHT22;16599;47.078;15.536;2023-02-18T03:41:05;4.30;99.90
29687;DHT22;16599;47.078;15.536;2023-02-18T03:43:32;4.30;99.90
29687;DHT22;16599;47.078;15.536;2023-02-18T03:45:59;4.30;99.90
29687;DHT22;16599;47.078;15.536;2023-02-18T03:48:26;4.40;99.90
29687;DHT22;16599;47.078;15.536;2023-02-18T03:50:53;4.30;99.90
29687;DHT22;16599;47.078;15.536;2023-02-18T03:53:19;4.20;99.90
29687;DHT22;16599;47.078;15.536;2023-02-18T03:55:46;4.30;99.90
29687;DHT22;16599;47.078;15.536;2023-02-18T03:58:13;4.40;99.90
29687;DHT22;16599;47.078;15.536;2023-02-18T04:00:40;4.40;99.90
29687;DHT22;16599;47.078;15.536;2023-02-18T04:03:06;4.60;99.90
29687;DHT22;16599;47.078;15.536;2023-02-18T04:05:33;4.80;99.90
29687;DHT22;16599;47.078;15.536;2023-02-18T04:08:00;4.80;99.90
29687;DHT22;16599;47.078;15.536;2023-02-18T04:10:26;4.60;99.90
29687;DHT22;16599;47.078;15.536;2023-02-18T04:12:53;4.80;99.90
29687;DHT22;16599;47.078;15.536;2023-02-18T04:15:20;5.00;99.90
29687;DHT22;16599;47.078;15.536;2023-02-18T04:17:46;4.90;99.90
29687;DHT22;16599;47.078;15.536;2023-02-18T04:20:13;5.00;99.90
29687;DHT22;16599;47.078;15.536;2023-02-18T04:22:40;5.00;99.90
29687;DHT22;16599;47.078;15.536;2023-02-18T04:25:06;4.90;99.90
29687;DHT22;16599;47.078;15.536;2023-02-18T04:27:33;4.90;99.90
29687;DHT22;16599;47.078;15.536;2023-02-18T04:30:00;4.90;99.90
29687;DHT22;16599;47.078;15.536;2023-02-18T04:32:27;5.00;99.90
29687;DHT22;16599;47.078;15.536;2023-02-18T04:34:54;4.70;99.90
29687;DHT22;16599;47.078;15.536;2023-02-18T04:37:20;4.70;99.90
29687;DHT22;16599;47.078;15.536;2023-02-18T04:39:47;4.70;99.90
29687;DHT22;16599;47.078;15.536;2023-02-18T04:42:14;4.80;99.90
29687;DHT22;16599;47.078;15.536;2023-02-18T04:44:40;4.90;99.90
29687;DHT22;16599;47.078;15.536;2023-02-18T04:47:07;5.20;99.90
29687;DHT22;16599;47.078;15.536;2023-02-18T04:49:34;5.20;99.90
29687;DHT22;16599;47.078;15.536;2023-02-18T04:52:03;5.00;99.90
29687;DHT22;16599;47.078;15.536;2023-02-18T04:54:29;5.20;99.90
29687;DHT22;16599;47.078;15.536;2023-02-18T04:56:56;5.40;99.90
29687;DHT22;16599;47.078;15.536;2023-02-18T04:59:23;5.40;99.90
29687;DHT22;16599;47.078;15.536;2023-02-18T05:01:50;5.30;99.90
29687;DHT22;16599;47.078;15.536;2023-02-18T05:04:16;5.30;99.90
29687;DHT22;16599;47.078;15.536;2023-02-18T05:06:43;5.40;99.90
29687;DHT22;16599;47.078;15.536;2023-02-18T05:09:10;5.30;99.90
29687;DHT22;16599;47.078;15.536;2023-02-18T05:11:37;5.30;99.90
29687;DHT22;16599;47.078;15.536;2023-02-18T05:14:03;5.40;99.90
29687;DHT22;16599;47.078;15.536;2023-02-18T05:16:30;5.30;99.90
29687;DHT22;16599;47.078;15.536;2023-02-18T05:18:57;5.20;99.90
29687;DHT22;16599;47.078;15.536;2023-02-18T05:21:24;5.00;99.90
29687;DHT22;16599;47.078;15.536;2023-02-18T05:23:50;5.20;99.90
29687;DHT22;16599;47.078;15.536;2023-02-18T05:26:17;5.40;99.90
29687;DHT22;16599;47.078;15.536;2023-02-18T05:28:44;5.30;99.90
29687;DHT22;16599;47.078;15.536;2023-02-18T05:31:10;5.20;99.90
29687;DHT22;16599;47.078;15.536;2023-02-18T05:33:37;5.10;99.90
29687;DHT22;16599;47.078;15.536;2023-02-18T05:36:04;5.00;99.90
29687;DHT22;16599;47.078;15.536;2023-02-18T05:38:31;5.00;99.90
29687;DHT22;16599;47.078;15.536;2023-02-18T05:40:58;5.10;99.90
29687;DHT22;16599;47.078;15.536;2023-02-18T05:43:24;5.00;99.90
29687;DHT22;16599;47.078;15.536;2023-02-18T05:45:51;5.70;99.90
29687;DHT22;16599;47.078;15.536;2023-02-18T05:48:18;5.70;99.90
29687;DHT22;16599;47.078;15.536;2023-02-18T05:50:44;5.40;99.90
29687;DHT22;16599;47.078;15.536;2023-02-18T05:53:11;5.00;99.90
29687;DHT22;16599;47.078;15.536;2023-02-18T05:55:38;5.00;99.90
29687;DHT22;16599;47.078;15.536;2023-02-18T05:58:05;5.20;99.90
29687;DHT22;16599;47.078;15.536;2023-02-18T06:00:32;5.30;99.90
29687;DHT22;16599;47.078;15.536;2023-02-18T06:02:58;5.20;99.90
29687;DHT22;16599;47.078;15.536;2023-02-18T06:05:25;5.30;99.90
29687;DHT22;16599;47.078;15.536;2023-02-18T06:07:52;5.40;99.90
29687;DHT22;16599;47.078;15.536;2023-02-18T06:10:22;5.20;99.90
29687;DHT22;16599;47.078;15.536;2023-02-18T06:12:49;5.10;99.90
29687;DHT22;16599;47.078;15.536;2023-02-18T06:15:15;5.10;99.90
29687;DHT22;16599;47.078;15.536;2023-02-18T06:17:42;5.30;99.90
29687;DHT22;16599;47.078;15.536;2023-02-18T06:20:09;5.10;99.90
29687;DHT22;16599;47.078;15.536;2023-02-18T06:22:36;4.90;99.90
29687;DHT22;16599;47.078;15.536;2023-02-18T06:25:02;5.10;99.90
29687;DHT22;16599;47.078;15.536;2023-02-18T06:27:29;5.10;99.90
29687;DHT22;16599;47.078;15.536;2023-02-18T06:29:56;5.10;99.90
29687;DHT22;16599;47.078;15.536;2023-02-18T06:32:22;5.10;99.90
29687;DHT22;16599;47.078;15.536;2023-02-18T06:34:49;5.10;99.90
29687;DHT22;16599;47.078;15.536;2023-02-18T06:37:16;5.00;99.90
29687;DHT22;16599;47.078;15.536;2023-02-18T06:39:43;5.00;99.90
29687;DHT22;16599;47.078;15.536;2023-02-18T06:42:09;5.10;99.90
29687;DHT22;16599;47.078;15.536;2023-02-18T06:44:36;5.20;99.90
29687;DHT22;16599;47.078;15.536;2023-02-18T06:47:03;5.20;99.90
29687;DHT22;16599;47.078;15.536;2023-02-18T06:49:30;5.30;99.90
29687;DHT22;16599;47.078;15.536;2023-02-18T06:51:57;5.50;99.90
29687;DHT22;16599;47.078;15.536;2023-02-18T06:54:23;5.60;99.90
29687;DHT22;16599;47.078;15.536;2023-02-18T06:56:50;5.60;99.90
29687;DHT22;16599;47.078;15.536;2023-02-18T06:59:17;5.30;99.90
29687;DHT22;16599;47.078;15.536;2023-02-18T07:01:44;5.30;99.90
29687;DHT22;16599;47.078;15.536;2023-02-18T07:04:10;5.30;99.90
29687;DHT22;16599;47.078;15.536;2023-02-18T07:06:37;5.50;99.90
29687;DHT22;16599;47.078;15.536;2023-02-18T07:09:04;5.50;99.90
29687;DHT22;16599;47.078;15.536;2023-02-18T07:11:31;5.60;99.90
29687;DHT22;16599;47.078;15.536;2023-02-18T07:13:57;5.50;99.90
29687;DHT22;16599;47.078;15.536;2023-02-18T07:16:24;5.40;99.90
29687;DHT22;16599;47.078;15.536;2023-02-18T07:18:51;5.40;99.90
29687;DHT22;16599;47.078;15.536;2023-02-18T07:21:17;5.40;99.90
29687;DHT22;16599;47.078;15.536;2023-02-18T07:23:44;5.60;99.90
29687;DHT22;16599;47.078;15.536;2023-02-18T07:26:13;5.60;99.90
29687;DHT22;16599;47.078;15.536;2023-02-18T07:28:40;5.60;99.90
29687;DHT22;16599;47.078;15.536;2023-02-18T07:31:07;5.80;99.90
29687;DHT22;16599;47.078;15.536;2023-02-18T07:33:34;6.00;99.90
29687;DHT22;16599;47.078;15.536;2023-02-18T07:36:01;6.20;99.90
29687;DHT22;16599;47.078;15.536;2023-02-18T07:38:28;6.20;99.90
29687;DHT22;16599;47.078;15.536;2023-02-18T07:40:55;6.10;99.90
29687;DHT22;16599;47.078;15.536;2023-02-18T07:43:22;6.20;99.90
29687;DHT22;16599;47.078;15.536;2023-02-18T07:45:49;6.30;99.90
29687;DHT22;16599;47.078;15.536;2023-02-18T07:48:16;6.90;99.90
29687;DHT22;16599;47.078;15.536;2023-02-18T07:50:43;7.30;99.90
29687;DHT22;16599;47.078;15.536;2023-02-18T07:53:11;7.30;99.90
29687;DHT22;16599;47.078;15.536;2023-02-18T07:55:38;7.10;99.90
29687;DHT22;16599;47.078;15.536;2023-02-18T07:58:18;7.10;99.90
29687;DHT22;16599;47.078;15.536;2023-02-18T08:00:45;7.60;99.90
29687;DHT22;16599;47.078;15.536;2023-02-18T08:03:13;7.70;99.90
29687;DHT22;16599;47.078;15.536;2023-02-18T08:05:40;7.60;99.90
29687;DHT22;16599;47.078;15.536;2023-02-18T08:08:07;7.50;99.90
29687;DHT22;16599;47.078;15.536;2023-02-18T08:10:35;7.40;99.90
29687;DHT22;16599;47.078;15.536;2023-02-18T08:13:01;7.40;99.90
29687;DHT22;16599;47.078;15.536;2023-02-18T08:15:28;7.50;99.90
29687;DHT22;16599;47.078;15.536;2023-02-18T08:17:54;7.70;99.90
29687;DHT22;16599;47.078;15.536;2023-02-18T08:20:21;8.00;99.90
29687;DHT22;16599;47.078;15.536;2023-02-18T08:22:48;8.00;99.90
29687;DHT22;16599;47.078;15.536;2023-02-18T08:25:14;8.10;99.90
29687;DHT22;16599;47.078;15.536;2023-02-18T08:27:55;8.10;99.90
29687;DHT22;16599;47.078;15.536;2023-02-18T08:30:21;8.20;99.90
29687;DHT22;16599;47.078;15.536;2023-02-18T08:32:48;8.40;99.90
29687;DHT22;16599;47.078;15.536;2023-02-18T08:35:15;8.40;99.90
29687;DHT22;16599;47.078;15.536;2023-02-18T08:37:41;8.80;99.90
29687;DHT22;16599;47.078;15.536;2023-02-18T08:40:19;9.00;99.90
29687;DHT22;16599;47.078;15.536;2023-02-18T08:42:46;9.10;99.90
29687;DHT22;16599;47.078;15.536;2023-02-18T08:45:13;9.50;99.90
29687;DHT22;16599;47.078;15.536;2023-02-18T08:47:39;9.70;99.50
29687;DHT22;16599;47.078;15.536;2023-02-18T08:50:28;9.60;98.80
29687;DHT22;16599;47.078;15.536;2023-02-18T08:55:46;9.80;98.80
29687;DHT22;16599;47.078;15.536;2023-02-18T08:58:13;9.70;98.10
29687;DHT22;16599;47.078;15.536;2023-02-18T09:00:41;9.90;97.30
29687;DHT22;16599;47.078;15.536;2023-02-18T09:03:11;9.80;98.60
29687;DHT22;16599;47.078;15.536;2023-02-18T09:05:38;10.00;96.80
29687;DHT22;16599;47.078;15.536;2023-02-18T09:08:05;9.90;96.40
29687;DHT22;16599;47.078;15.536;2023-02-18T09:10:32;10.00;97.50
29687;DHT22;16599;47.078;15.536;2023-02-18T09:13:00;10.00;96.90
29687;DHT22;16599;47.078;15.536;2023-02-18T09:15:26;10.00;97.50
29687;DHT22;16599;47.078;15.536;2023-02-18T09:17:53;9.90;96.50
29687;DHT22;16599;47.078;15.536;2023-02-18T09:20:20;9.80;96.90
29687;DHT22;16599;47.078;15.536;2023-02-18T09:22:47;10.00;95.40
29687;DHT22;16599;47.078;15.536;2023-02-18T09:25:20;10.20;95.10
29687;DHT22;16599;47.078;15.536;2023-02-18T09:28:07;10.10;94.30
29687;DHT22;16599;47.078;15.536;2023-02-18T09:30:34;10.10;92.80
29687;DHT22;16599;47.078;15.536;2023-02-18T09:33:21;10.20;91.30
29687;DHT22;16599;47.078;15.536;2023-02-18T09:35:48;10.40;90.50
29687;DHT22;16599;47.078;15.536;2023-02-18T09:38:15;10.40;92.70
29687;DHT22;16599;47.078;15.536;2023-02-18T09:40:43;10.70;92.10
29687;DHT22;16599;47.078;15.536;2023-02-18T09:43:45;10.50;91.80
29687;DHT22;16599;47.078;15.536;2023-02-18T09:46:04;10.50;90.10
29687;DHT22;16599;47.078;15.536;2023-02-18T09:48:33;10.80;90.30
29687;DHT22;16599;47.078;15.536;2023-02-18T09:51:00;10.70;87.30
29687;DHT22;16599;47.078;15.536;2023-02-18T09:53:27;10.70;86.80
29687;DHT22;16599;47.078;15.536;2023-02-18T09:55:54;10.80;86.70
29687;DHT22;16599;47.078;15.536;2023-02-18T09:58:25;10.90;86.10
29687;DHT22;16599;47.078;15.536;2023-02-18T10:01:10;10.90;85.80
29687;DHT22;16599;47.078;15.536;2023-02-18T10:03:38;10.80;85.30
29687;DHT22;16599;47.078;15.536;2023-02-18T10:06:07;11.10;85.90
29687;DHT22;16599;47.078;15.536;2023-02-18T10:08:37;11.20;86.00
29687;DHT22;16599;47.078;15.536;2023-02-18T10:11:12;11.50;83.60
29687;DHT22;16599;47.078;15.536;2023-02-18T10:13:43;11.60;83.10
29687;DHT22;16599;47.078;15.536;2023-02-18T10:16:12;11.80;83.00
29687;DHT22;16599;47.078;15.536;2023-02-18T10:18:41;12.00;81.80
29687;DHT22;16599;47.078;15.536;2023-02-18T10:21:09;12.10;82.60
29687;DHT22;16599;47.078;15.536;2023-02-18T10:23:38;12.50;80.30
29687;DHT22;16599;47.078;15.536;2023-02-18T10:26:08;12.60;80.30
29687;DHT22;16599;47.078;15.536;2023-02-18T10:28:37;12.90;80.90
29687;DHT22;16599;47.078;15.536;2023-02-18T10:31:05;12.80;78.20
29687;DHT22;16599;47.078;15.536;2023-02-18T10:38:56;13.50;78.90
29687;DHT22;16599;47.078;15.536;2023-02-18T10:41:35;13.50;76.10
29687;DHT22;16599;47.078;15.536;2023-02-18T10:51:49;13.90;76.20
29687;DHT22;16599;47.078;15.536;2023-02-18T10:54:16;14.30;73.50
29687;DHT22;16599;47.078;15.536;2023-02-18T10:56:47;14.30;73.60
29687;DHT22;16599;47.078;15.536;2023-02-18T11:01:54;14.70;72.90
29687;DHT22;16599;47.078;15.536;2023-02-18T11:04:26;14.90;73.10
29687;DHT22;16599;47.078;15.536;2023-02-18T11:06:53;15.20;70.00
29687;DHT22;16599;47.078;15.536;2023-02-18T11:11:50;15.30;68.30
29687;DHT22;16599;47.078;15.536;2023-02-18T11:14:37;15.50;70.00
29687;DHT22;16599;47.078;15.536;2023-02-18T11:17:15;15.70;67.20
29687;DHT22;16599;47.078;15.536;2023-02-18T11:19:45;15.80;67.00
29687;DHT22;16599;47.078;15.536;2023-02-18T11:22:18;15.70;68.10
29687;DHT22;16599;47.078;15.536;2023-02-18T11:24:45;15.60;67.10
29687;DHT22;16599;47.078;15.536;2023-02-18T11:27:17;15.90;66.80
29687;DHT22;16599;47.078;15.536;2023-02-18T11:29:49;15.80;67.20
29687;DHT22;16599;47.078;15.536;2023-02-18T11:32:26;16.00;66.20
29687;DHT22;16599;47.078;15.536;2023-02-18T11:34:57;15.80;67.00
29687;DHT22;16599;47.078;15.536;2023-02-18T11:37:24;15.90;66.70
29687;DHT22;16599;47.078;15.536;2023-02-18T11:39:53;16.10;67.90
29687;DHT22;16599;47.078;15.536;2023-02-18T11:42:21;16.00;65.90
29687;DHT22;16599;47.078;15.536;2023-02-18T11:44:57;16.10;64.10
29687;DHT22;16599;47.078;15.536;2023-02-18T11:47:25;15.80;64.90
29687;DHT22;16599;47.078;15.536;2023-02-18T11:50:00;15.70;64.90
29687;DHT22;16599;47.078;15.536;2023-02-18T11:52:29;15.90;66.50
29687;DHT22;16599;47.078;15.536;2023-02-18T11:57:32;16.10;64.60
29687;DHT22;16599;47.078;15.536;2023-02-18T11:59:59;16.10;65.90
29687;DHT22;16599;47.078;15.536;2023-02-18T12:02:29;16.00;65.00
29687;DHT22;16599;47.078;15.536;2023-02-18T12:04:58;16.00;66.30
29687;DHT22;16599;47.078;15.536;2023-02-18T12:07:38;16.00;66.60
29687;DHT22;16599;47.078;15.536;2023-02-18T12:10:26;16.10;67.20
29687;DHT22;16599;47.078;15.536;2023-02-18T12:12:55;16.40;66.30
29687;DHT22;16599;47.078;15.536;2023-02-18T12:15:33;16.20;66.80
29687;DHT22;16599;47.078;15.536;2023-02-18T12:28:07;16.30;67.20
29687;DHT22;16599;47.078;15.536;2023-02-18T12:30:55;16.40;67.50
29687;DHT22;16599;47.078;15.536;2023-02-18T12:33:27;16.40;66.80
29687;DHT22;16599;47.078;15.536;2023-02-18T12:46:25;16.40;68.30
29687;DHT22;16599;47.078;15.536;2023-02-18T12:54:17;16.90;67.10
29687;DHT22;16599;47.078;15.536;2023-02-18T12:59:38;17.10;66.40
29687;DHT22;16599;47.078;15.536;2023-02-18T13:02:57;16.80;67.30
29687;DHT22;16599;47.078;15.536;2023-02-18T13:07:42;16.80;66.10
29687;DHT22;16599;47.078;15.536;2023-02-18T13:10:20;17.10;65.60
29687;DHT22;16599;47.078;15.536;2023-02-18T13:13:04;16.90;64.70
29687;DHT22;16599;47.078;15.536;2023-02-18T13:18:41;16.80;64.30
29687;DHT22;16599;47.078;15.536;2023-02-18T13:21:11;16.50;65.00
29687;DHT22;16599;47.078;15.536;2023-02-18T13:23:39;16.60;65.20
29687;DHT22;16599;47.078;15.536;2023-02-18T13:26:08;16.50;64.60
29687;DHT22;16599;47.078;15.536;2023-02-18T13:28:39;16.40;65.30
29687;DHT22;16599;47.078;15.536;2023-02-18T13:31:14;16.40;64.90
29687;DHT22;16599;47.078;15.536;2023-02-18T13:36:35;16.20;63.80
29687;DHT22;16599;47.078;15.536;2023-02-18T13:39:06;15.90;63.80
29687;DHT22;16599;47.078;15.536;2023-02-18T13:41:40;15.50;65.20
29687;DHT22;16599;47.078;15.536;2023-02-18T13:46:50;15.60;66.40
29687;DHT22;16599;47.078;15.536;2023-02-18T13:49:21;15.30;65.70
29687;DHT22;16599;47.078;15.536;2023-02-18T13:51:49;15.20;67.90
29687;DHT22;16599;47.078;15.536;2023-02-18T13:54:23;15.30;67.30
29687;DHT22;16599;47.078;15.536;2023-02-18T13:56:52;15.40;67.60
29687;DHT22;16599;47.078;15.536;2023-02-18T14:01:56;15.20;66.80
29687;DHT22;16599;47.078;15.536;2023-02-18T14:09:55;15.40;67.60
29687;DHT22;16599;47.078;15.536;2023-02-18T14:12:33;15.20;67.50
29687;DHT22;16599;47.078;15.536;2023-02-18T14:17:48;15.00;67.20
29687;DHT22;16599;47.078;15.536;2023-02-18T14:22:50;15.10;69.60
29687;DHT22;16599;47.078;15.536;2023-02-18T14:27:50;15.10;67.90
29687;DHT22;16599;47.078;15.536;2023-02-18T14:32:48;14.80;67.50
29687;DHT22;16599;47.078;15.536;2023-02-18T14:37:51;14.50;70.20
29687;DHT22;16599;47.078;15.536;2023-02-18T14:40:26;14.60;69.00
29687;DHT22;16599;47.078;15.536;2023-02-18T14:50:57;13.80;71.00
29687;DHT22;16599;47.078;15.536;2023-02-18T14:53:25;13.40;72.50
29687;DHT22;16599;47.078;15.536;2023-02-18T14:55:54;13.30;73.30
29687;DHT22;16599;47.078;15.536;2023-02-18T14:58:25;13.20;73.20
29687;DHT22;16599;47.078;15.536;2023-02-18T15:00:53;13.10;73.00
29687;DHT22;16599;47.078;15.536;2023-02-18T15:03:20;13.10;74.80
29687;DHT22;16599;47.078;15.536;2023-02-18T15:05:50;13.00;73.90
29687;DHT22;16599;47.078;15.536;2023-02-18T15:08:21;12.70;74.30
29687;DHT22;16599;47.078;15.536;2023-02-18T15:13:19;12.50;74.30
29687;DHT22;16599;47.078;15.536;2023-02-18T15:15:48;12.50;74.00
29687;DHT22;16599;47.078;15.536;2023-02-18T15:18:20;12.40;73.10
29687;DHT22;16599;47.078;15.536;2023-02-18T15:20:48;12.10;75.60
29687;DHT22;16599;47.078;15.536;2023-02-18T15:23:15;12.00;76.50
29687;DHT22;16599;47.078;15.536;2023-02-18T15:25:49;12.00;76.90
29687;DHT22;16599;47.078;15.536;2023-02-18T15:28:24;11.90;77.30
29687;DHT22;16599;47.078;15.536;2023-02-18T15:30:52;11.90;77.20
29687;DHT22;16599;47.078;15.536;2023-02-18T15:33:19;11.90;78.30
29687;DHT22;16599;47.078;15.536;2023-02-18T15:35:46;11.60;78.30
29687;DHT22;16599;47.078;15.536;2023-02-18T15:38:13;11.60;79.00
29687;DHT22;16599;47.078;15.536;2023-02-18T15:40:40;11.40;79.70
29687;DHT22;16599;47.078;15.536;2023-02-18T15:43:08;11.30;80.60
29687;DHT22;16599;47.078;15.536;2023-02-18T15:45:37;11.30;80.90
29687;DHT22;16599;47.078;15.536;2023-02-18T15:48:05;11.10;81.60
29687;DHT22;16599;47.078;15.536;2023-02-18T15:50:33;10.50;84.60
29687;DHT22;16599;47.078;15.536;2023-02-18T15:53:08;10.50;84.50
29687;DHT22;16599;47.078;15.536;2023-02-18T15:55:54;10.30;85.10
29687;DHT22;16599;47.078;15.536;2023-02-18T15:58:26;10.30;85.20
29687;DHT22;16599;47.078;15.536;2023-02-18T16:00:54;10.30;85.40
29687;DHT22;16599;47.078;15.536;2023-02-18T16:08:35;9.50;87.80
29687;DHT22;16599;47.078;15.536;2023-02-18T16:11:04;9.40;89.80
29687;DHT22;16599;47.078;15.536;2023-02-18T16:13:33;9.10;89.30
29687;DHT22;16599;47.078;15.536;2023-02-18T16:16:00;8.90;90.80
29687;DHT22;16599;47.078;15.536;2023-02-18T16:18:35;8.60;90.70
29687;DHT22;16599;47.078;15.536;2023-02-18T16:21:04;7.90;92.10
29687;DHT22;16599;47.078;15.536;2023-02-18T16:23:39;8.30;92.40
29687;DHT22;16599;47.078;15.536;2023-02-18T16:28:53;7.70;91.70
29687;DHT22;16599;47.078;15.536;2023-02-18T16:31:21;7.80;92.60
29687;DHT22;16599;47.078;15.536;2023-02-18T16:33:48;8.00;92.00
29687;DHT22;16599;47.078;15.536;2023-02-18T16:36:15;7.00;92.80
29687;DHT22;16599;47.078;15.536;2023-02-18T16:38:42;7.00;93.50
29687;DHT22;16599;47.078;15.536;2023-02-18T16:41:11;6.90;94.60
29687;DHT22;16599;47.078;15.536;2023-02-18T16:43:38;7.30;94.70
29687;DHT22;16599;47.078;15.536;2023-02-18T16:46:11;6.60;93.80
29687;DHT22;16599;47.078;15.536;2023-02-18T16:48:41;6.60;95.30
29687;DHT22;16599;47.078;15.536;2023-02-18T16:51:12;6.90;94.90
29687;DHT22;16599;47.078;15.536;2023-02-18T16:53:40;6.80;94.00
29687;DHT22;16599;47.078;15.536;2023-02-18T16:56:11;6.80;94.80
29687;DHT22;16599;47.078;15.536;2023-02-18T16:58:38;6.50;94.40
29687;DHT22;16599;47.078;15.536;2023-02-18T17:01:19;6.20;95.60
29687;DHT22;16599;47.078;15.536;2023-02-18T17:03:46;6.00;95.20
29687;DHT22;16599;47.078;15.536;2023-02-18T17:06:14;6.20;96.30
29687;DHT22;16599;47.078;15.536;2023-02-18T17:08:41;5.90;95.20
29687;DHT22;16599;47.078;15.536;2023-02-18T17:11:09;5.90;97.40
29687;DHT22;16599;47.078;15.536;2023-02-18T17:13:37;5.90;95.90
29687;DHT22;16599;47.078;15.536;2023-02-18T17:16:04;5.60;97.10
29687;DHT22;16599;47.078;15.536;2023-02-18T17:18:31;5.80;97.00
29687;DHT22;16599;47.078;15.536;2023-02-18T17:20:58;5.90;97.70
29687;DHT22;16599;47.078;15.536;2023-02-18T17:23:25;6.40;97.00
29687;DHT22;16599;47.078;15.536;2023-02-18T17:25:52;6.20;95.60
29687;DHT22;16599;47.078;15.536;2023-02-18T17:28:19;5.80;97.10
29687;DHT22;16599;47.078;15.536;2023-02-18T17:30:51;5.80;96.70
29687;DHT22;16599;47.078;15.536;2023-02-18T17:33:19;4.90;98.20
29687;DHT22;16599;47.078;15.536;2023-02-18T17:35:46;5.50;98.70
29687;DHT22;16599;47.078;15.536;2023-02-18T17:38:13;5.10;97.60
29687;DHT22;16599;47.078;15.536;2023-02-18T17:40:40;5.30;98.40
29687;DHT22;16599;47.078;15.536;2023-02-18T17:43:13;5.20;98.40
29687;DHT22;16599;47.078;15.536;2023-02-18T17:45:42;5.20;98.50
29687;DHT22;16599;47.078;15.536;2023-02-18T17:48:10;5.00;97.90
29687;DHT22;16599;47.078;15.536;2023-02-18T17:50:36;4.80;99.50
29687;DHT22;16599;47.078;15.536;2023-02-18T17:53:03;5.20;99.70
29687;DHT22;16599;47.078;15.536;2023-02-18T17:55:31;4.80;98.10
29687;DHT22;16599;47.078;15.536;2023-02-18T17:57:58;4.60;99.10
29687;DHT22;16599;47.078;15.536;2023-02-18T18:00:29;4.30;99.60